Time;durP1;ratioP1;P1;durP2;ratioP2;P2;SDS_P1;SDS_P2;PMS_P1;PMS_P2;Temp;Humidity;BMP_temperature;BMP_pressure;BME280_temperature;BME280_humidity;BME280_pressure;Samples;Min_cycle;Max_cycle;Signal;HPM_P1;HPM_P2
2021/07/29 00:00:04;;;;;;;7.63;5.43;;;;;;;14.01;100.00;95858.47;1025955;28;20496;-67
2021/07/29 00:00:35;;;;;;;8.23;5.15;;;;;;;14.02;100.00;95860.06;1022538;29;20485;-67
2021/07/29 00:01:11;;;;;;;10.50;5.72;;;;;;;14.00;100.00;95856.91;1022640;28;20024;-67
2021/07/29 00:01:41;;;;;;;9.85;5.85;;;;;;;14.03;100.00;95858.22;1027090;28;20011;-65
2021/07/29 00:02:11;;;;;;;9.70;5.53;;;;;;;14.00;100.00;95859.56;1031267;28;20018;-67
2021/07/29 00:02:42;;;;;;;9.68;5.80;;;;;;;13.98;100.00;95858.25;1033191;28;20037;-66
2021/07/29 00:03:12;;;;;;;8.98;5.20;;;;;;;13.98;100.00;95852.97;1026317;28;20019;-66
2021/07/29 00:03:43;;;;;;;7.93;5.40;;;;;;;13.98;100.00;95853.75;1030097;28;20021;-65
2021/07/29 00:04:13;;;;;;;5.22;4.65;;;;;;;13.99;100.00;95862.50;1026534;28;20027;-67
2021/07/29 00:04:44;;;;;;;9.63;5.60;;;;;;;13.98;100.00;95855.63;1026688;28;20019;-66
2021/07/29 00:05:14;;;;;;;7.68;6.25;;;;;;;13.93;100.00;95845.13;1026990;28;20558;-67
2021/07/29 00:05:47;;;;;;;8.50;5.72;;;;;;;13.95;100.00;95857.00;1024852;28;20023;-67
2021/07/29 00:06:17;;;;;;;6.30;5.38;;;;;;;13.91;100.00;95848.81;1022528;28;20453;-67
2021/07/29 00:06:48;;;;;;;8.25;5.85;;;;;;;13.93;100.00;95853.84;1024194;28;20062;-67
2021/07/29 00:07:18;;;;;;;7.70;5.57;;;;;;;13.93;100.00;95855.69;1025839;28;20085;-67
2021/07/29 00:07:50;;;;;;;7.63;5.43;;;;;;;13.93;100.00;95853.84;1028883;28;20127;-65
2021/07/29 00:08:20;;;;;;;8.07;5.55;;;;;;;13.92;100.00;95849.63;1022682;28;20039;-67
2021/07/29 00:08:52;;;;;;;6.30;5.28;;;;;;;13.88;100.00;95846.78;1026324;28;20042;-67
2021/07/29 00:09:22;;;;;;;8.70;5.93;;;;;;;13.89;100.00;95850.97;1026580;28;20050;-67
2021/07/29 00:09:53;;;;;;;8.68;5.57;;;;;;;13.90;100.00;95855.19;1018368;29;20506;-67
2021/07/29 00:10:24;;;;;;;7.80;6.07;;;;;;;13.89;100.00;95850.97;1022050;29;20073;-67
2021/07/29 00:10:54;;;;;;;7.63;6.40;;;;;;;13.89;100.00;95850.97;1022428;28;20107;-67
2021/07/29 00:11:25;;;;;;;10.48;6.55;;;;;;;13.90;100.00;95847.25;1026586;28;20117;-67
2021/07/29 00:11:55;;;;;;;7.72;5.45;;;;;;;13.91;100.00;95848.03;1026217;28;20049;-66
2021/07/29 00:12:25;;;;;;;8.02;5.85;;;;;;;13.91;100.00;95853.31;1025807;28;20039;-68
2021/07/29 00:12:56;;;;;;;7.25;5.50;;;;;;;13.88;100.00;95854.69;1022467;29;20027;-68
2021/07/29 00:13:26;;;;;;;7.05;5.05;;;;;;;13.88;100.00;95854.69;1018336;29;20032;-67
2021/07/29 00:13:58;;;;;;;8.02;5.82;;;;;;;13.89;100.00;95856.25;1014294;29;20032;-67
2021/07/29 00:14:29;;;;;;;7.07;4.80;;;;;;;13.85;100.00;95844.69;1018503;29;20131;-67
2021/07/29 00:14:59;;;;;;;13.80;6.25;;;;;;;13.90;100.00;95847.25;1022760;29;20111;-67
2021/07/29 00:15:30;;;;;;;8.25;5.43;;;;;;;13.91;100.00;95854.09;1029788;28;20069;-65
2021/07/29 00:16:02;;;;;;;9.27;5.50;;;;;;;13.91;100.00;95848.81;1025491;28;20043;-68
2021/07/29 00:16:42;;;;;;;9.50;5.60;;;;;;;13.91;100.00;95843.56;1018510;29;20570;-64
2021/07/29 00:17:27;;;;;;;7.00;5.38;;;;;;;14.02;100.00;95849.53;1024107;28;20077;-67
2021/07/29 00:19:17;;;;;;;8.20;5.93;;;;;;;14.10;100.00;95851.53;1024832;28;20559;-67
2021/07/29 00:19:48;;;;;;;6.38;4.82;;;;;;;14.11;100.00;95842.53;1026531;28;20050;-64
2021/07/29 00:20:18;;;;;;;11.70;5.72;;;;;;;14.12;100.00;95853.91;1025188;28;20070;-67
2021/07/29 00:20:48;;;;;;;8.57;5.50;;;;;;;14.13;100.00;95850.97;1024528;28;20031;-64
2021/07/29 00:21:19;;;;;;;8.60;5.35;;;;;;;14.15;100.00;95853.31;1022745;28;20094;-68
2021/07/29 00:21:50;;;;;;;6.22;4.78;;;;;;;14.15;100.00;95848.03;1021892;28;20413;-64
2021/07/29 00:22:20;;;;;;;7.10;4.95;;;;;;;14.16;100.00;95854.91;1026483;28;20038;-67
2021/07/29 00:22:53;;;;;;;6.38;4.97;;;;;;;14.06;100.00;95832.06;1019062;29;20036;-67
2021/07/29 00:23:23;;;;;;;8.25;4.43;;;;;;;14.18;100.00;95847.47;1018175;29;20106;-67
2021/07/29 00:23:54;;;;;;;8.75;5.28;;;;;;;14.20;100.00;95845.34;1019070;29;20343;-67
2021/07/29 00:24:26;;;;;;;9.07;4.97;;;;;;;14.22;100.00;95843.22;1024852;28;20035;-67
2021/07/29 00:24:56;;;;;;;8.23;5.03;;;;;;;14.24;100.00;95846.34;1031664;28;20085;-67
2021/07/29 00:25:27;;;;;;;6.38;4.90;;;;;;;14.26;100.00;95849.50;1030318;28;20478;-67
2021/07/29 00:25:58;;;;;;;9.32;5.63;;;;;;;14.27;100.00;95853.69;1022399;29;20053;-67
2021/07/29 00:26:28;;;;;;;6.35;4.90;;;;;;;14.28;100.00;95847.34;1022442;29;20039;-67
2021/07/29 00:26:59;;;;;;;11.10;5.50;;;;;;;14.30;100.00;95849.72;1026575;28;20030;-67
2021/07/29 00:27:29;;;;;;;8.35;5.47;;;;;;;14.32;100.00;95848.38;1026696;28;20057;-67
2021/07/29 00:28:00;;;;;;;8.45;5.22;;;;;;;14.34;100.00;95856.78;1022205;28;20035;-67
2021/07/29 00:28:31;;;;;;;7.78;5.35;;;;;;;14.36;100.00;95845.94;1022767;28;20054;-67
2021/07/29 00:29:01;;;;;;;9.65;5.32;;;;;;;14.32;100.00;95835.19;1026857;28;20038;-67
2021/07/29 00:29:32;;;;;;;7.15;5.18;;;;;;;14.39;100.00;95838.25;1026518;28;20033;-67
2021/07/29 00:30:04;;;;;;;7.32;5.32;;;;;;;14.41;100.00;95840.59;1022837;28;20667;-68
2021/07/29 00:30:34;;;;;;;6.18;4.88;;;;;;;14.43;100.00;95848.25;1022826;28;20400;-67
2021/07/29 00:31:04;;;;;;;7.22;5.18;;;;;;;14.43;100.00;95837.69;1027768;28;20129;-67
2021/07/29 00:31:35;;;;;;;7.45;4.97;;;;;;;14.46;100.00;95842.41;1030703;28;20058;-64
2021/07/29 00:32:06;;;;;;;8.10;4.97;;;;;;;14.46;100.00;95839.75;1029959;28;20038;-68
2021/07/29 00:32:36;;;;;;;10.65;5.20;;;;;;;14.48;100.00;95846.31;1030648;28;20790;-65
2021/07/29 00:33:07;;;;;;;8.43;4.90;;;;;;;14.49;100.00;95839.97;1030074;28;20053;-68
2021/07/29 00:33:37;;;;;;;6.35;5.13;;;;;;;14.50;100.00;95843.41;1034482;28;20546;-67
2021/07/29 00:34:09;;;;;;;6.15;4.75;;;;;;;14.50;100.00;95846.03;1034709;28;20037;-67
2021/07/29 00:34:39;;;;;;;8.70;5.85;;;;;;;14.51;100.00;95839.69;1028177;28;20462;-67
2021/07/29 00:35:16;;;;;;;9.52;4.93;;;;;;;14.45;100.00;95838.94;1030552;28;20034;-67
2021/07/29 00:35:47;;;;;;;8.07;5.53;;;;;;;14.54;100.00;95847.06;1026126;28;20026;-67
2021/07/29 00:36:21;;;;;;;9.13;5.50;;;;;;;14.52;100.00;95846.53;1024728;28;20126;-68
2021/07/29 00:36:51;;;;;;;6.28;4.80;;;;;;;14.38;100.00;95826.13;1026448;28;20034;-67
2021/07/29 00:37:21;;;;;;;11.68;5.45;;;;;;;14.51;100.00;95844.97;1027947;28;20382;-68
2021/07/29 00:37:54;;;;;;;8.27;5.53;;;;;;;14.44;100.00;95834.75;1030782;28;20030;-67
2021/07/29 00:38:25;;;;;;;7.13;4.57;;;;;;;14.53;100.00;95842.84;1027056;28;20492;-68
2021/07/29 00:38:55;;;;;;;7.20;5.25;;;;;;;14.53;100.00;95842.84;1026578;28;20035;-67
2021/07/29 00:39:26;;;;;;;9.30;5.60;;;;;;;14.54;100.00;95844.41;1025705;28;20053;-67
2021/07/29 00:39:56;;;;;;;9.57;5.70;;;;;;;14.48;100.00;95837.59;1025801;28;20123;-66
2021/07/29 00:40:27;;;;;;;8.02;5.63;;;;;;;14.56;100.00;95847.56;1030583;28;20041;-67
2021/07/29 00:40:57;;;;;;;8.32;4.82;;;;;;;14.55;100.00;95845.97;1022318;29;20500;-67
2021/07/29 00:41:28;;;;;;;10.68;5.28;;;;;;;14.56;100.00;95843.06;1022277;28;20034;-67
2021/07/29 00:41:58;;;;;;;7.50;4.80;;;;;;;14.54;100.00;95839.13;1022280;28;20078;-67
2021/07/29 00:42:29;;;;;;;7.45;4.70;;;;;;;14.59;100.00;95844.38;1022774;28;20035;-67
2021/07/29 00:43:00;;;;;;;5.55;4.68;;;;;;;14.59;100.00;95844.38;1030192;28;20068;-67
2021/07/29 00:43:30;;;;;;;6.07;4.70;;;;;;;14.61;100.00;95840.34;1030623;28;20037;-67
2021/07/29 00:44:01;;;;;;;7.47;5.15;;;;;;;14.56;100.00;95837.00;1030898;28;20085;-67
2021/07/29 00:44:34;;;;;;;6.40;5.30;;;;;;;14.64;100.00;95844.28;1026546;28;20119;-67
2021/07/29 00:45:05;;;;;;;9.02;5.45;;;;;;;14.63;100.00;95834.78;1026678;28;20038;-67
2021/07/29 00:45:36;;;;;;;6.50;4.68;;;;;;;14.67;100.00;95848.22;1022596;29;20035;-67
2021/07/29 00:46:06;;;;;;;5.90;4.82;;;;;;;14.68;100.00;95841.84;1023344;28;20034;-67
2021/07/29 00:46:36;;;;;;;9.10;5.07;;;;;;;14.68;100.00;95845.28;1028393;28;20033;-64
2021/07/29 00:47:07;;;;;;;6.25;5.40;;;;;;;14.65;100.00;95840.56;1026835;28;20023;-67
2021/07/29 00:47:41;;;;;;;10.35;4.82;;;;;;;14.68;100.00;95831.28;1026583;28;20504;-66
2021/07/29 00:48:13;;;;;;;6.70;4.53;;;;;;;14.74;100.00;95844.13;1026617;28;20098;-66
2021/07/29 00:48:43;;;;;;;7.20;5.35;;;;;;;14.75;100.00;95842.28;1023428;28;20046;-64
2021/07/29 00:49:14;;;;;;;6.80;4.82;;;;;;;14.76;100.00;95839.38;1027179;28;20130;-67
2021/07/29 00:49:44;;;;;;;7.65;5.10;;;;;;;14.72;100.00;95830.44;1030893;28;20045;-67
2021/07/29 00:50:15;;;;;;;5.85;4.72;;;;;;;14.78;100.00;95844.34;1022835;28;20031;-67
2021/07/29 00:50:46;;;;;;;8.65;4.80;;;;;;;14.78;100.00;95839.06;1026768;28;20567;-67
2021/07/29 00:51:16;;;;;;;5.65;4.53;;;;;;;14.80;100.00;95835.06;1018499;29;20031;-67
2021/07/29 00:51:46;;;;;;;7.93;5.30;;;;;;;14.79;100.00;95836.16;1021017;28;20031;-67
2021/07/29 00:52:20;;;;;;;7.53;4.70;;;;;;;14.81;100.00;95835.84;1026495;28;20102;-67
2021/07/29 00:52:51;;;;;;;5.70;4.32;;;;;;;14.81;100.00;95841.91;1023608;28;20035;-67
2021/07/29 00:53:21;;;;;;;5.88;4.80;;;;;;;14.80;100.00;95837.72;1022314;29;20047;-67
2021/07/29 00:53:52;;;;;;;9.95;5.05;;;;;;;14.81;100.00;95834.00;1014794;29;20072;-67
2021/07/29 00:54:27;;;;;;;8.63;5.22;;;;;;;14.78;100.00;95834.56;1018715;29;20101;-67
2021/07/29 00:54:58;;;;;;;7.57;5.47;;;;;;;14.83;100.00;95839.78;1018370;29;20118;-67
2021/07/29 00:55:28;;;;;;;6.35;4.80;;;;;;;14.79;100.00;95832.72;1022441;29;20521;-65
2021/07/29 00:55:59;;;;;;;7.22;4.95;;;;;;;14.76;100.00;95828.78;1014896;29;20032;-67
2021/07/29 00:56:29;;;;;;;9.52;4.88;;;;;;;14.82;100.00;95834.78;1022869;28;20019;-66
2021/07/29 00:57:00;;;;;;;7.25;5.20;;;;;;;14.84;100.00;95830.78;1026502;28;20026;-67
2021/07/29 00:57:30;;;;;;;10.13;5.18;;;;;;;14.82;100.00;95827.66;1030648;28;20423;-66
2021/07/29 00:58:00;;;;;;;9.27;5.35;;;;;;;14.85;100.00;95824.44;1034500;28;20068;-67
2021/07/29 00:58:31;;;;;;;9.55;5.70;;;;;;;14.86;100.00;95835.78;1029945;28;20030;-67
2021/07/29 00:59:01;;;;;;;10.80;5.15;;;;;;;14.88;100.00;95827.56;1026557;28;20804;-67
2021/07/29 00:59:32;;;;;;;8.15;5.10;;;;;;;14.88;100.00;95832.84;1030582;28;20385;-68
2021/07/29 01:00:03;;;;;;;6.88;4.60;;;;;;;14.88;100.00;95823.06;1029135;28;20484;-67
2021/07/29 01:00:33;;;;;;;8.10;5.00;;;;;;;14.88;100.00;95830.22;1022700;28;20023;-67
2021/07/29 01:01:04;;;;;;;7.68;4.68;;;;;;;14.89;100.00;95832.56;1025183;28;20022;-67
2021/07/29 01:01:34;;;;;;;7.25;5.20;;;;;;;14.89;100.00;95826.47;1022471;28;20019;-64
2021/07/29 01:02:05;;;;;;;8.38;5.00;;;;;;;14.89;100.00;95829.13;1025675;28;20066;-67
2021/07/29 01:02:35;;;;;;;9.13;5.15;;;;;;;14.90;100.00;95828.06;1026314;28;20027;-67
2021/07/29 01:03:06;;;;;;;7.07;5.53;;;;;;;14.90;100.00;95831.50;1026554;28;20067;-67
2021/07/29 01:03:36;;;;;;;6.82;5.28;;;;;;;14.92;100.00;95828.56;1027667;28;20018;-67
2021/07/29 01:04:07;;;;;;;9.13;5.10;;;;;;;14.91;100.00;95821.72;1025500;28;20046;-67
2021/07/29 01:04:37;;;;;;;9.48;5.28;;;;;;;14.90;100.00;95823.56;1027383;28;20011;-67
2021/07/29 01:05:09;;;;;;;6.35;4.50;;;;;;;14.89;100.00;95829.13;1023700;28;20015;-67
2021/07/29 01:05:39;;;;;;;6.78;4.85;;;;;;;14.93;100.00;95832.78;1026408;28;20038;-68
2021/07/29 01:06:09;;;;;;;8.10;5.22;;;;;;;14.92;100.00;95826.69;1027807;28;20463;-66
2021/07/29 01:06:40;;;;;;;5.90;5.00;;;;;;;14.93;100.00;95827.50;1030441;28;20065;-68
2021/07/29 01:07:10;;;;;;;6.55;4.80;;;;;;;14.94;100.00;95827.19;1030360;28;20038;-66
2021/07/29 01:07:42;;;;;;;9.80;5.10;;;;;;;14.94;100.00;95821.91;1028996;28;20049;-67
2021/07/29 01:08:13;;;;;;;6.90;5.18;;;;;;;14.95;100.00;95822.69;1026227;28;20031;-67
2021/07/29 01:09:08;;;;;;;7.18;4.57;;;;;;;14.98;100.00;95819.47;1026964;28;20114;-67
2021/07/29 01:09:40;;;;;;;10.70;5.38;;;;;;;14.91;100.00;95801.34;1030374;28;20515;-67
2021/07/29 01:10:11;;;;;;;11.70;5.60;;;;;;;15.00;100.00;95815.47;1025197;28;20023;-67
2021/07/29 01:10:41;;;;;;;5.90;4.68;;;;;;;15.01;100.00;95817.03;1014776;29;20024;-68
2021/07/29 01:11:12;;;;;;;7.88;4.70;;;;;;;15.04;100.00;95816.47;1014813;29;20035;-67
2021/07/29 01:11:43;;;;;;;7.20;4.72;;;;;;;15.03;100.00;95814.13;1024408;28;20032;-66
2021/07/29 01:12:13;;;;;;;6.13;4.70;;;;;;;15.03;100.00;95808.84;1026159;28;20034;-67
2021/07/29 01:12:44;;;;;;;8.57;5.10;;;;;;;15.06;100.00;95814.34;1018615;29;20489;-67
2021/07/29 01:13:14;;;;;;;9.48;5.38;;;;;;;15.06;100.00;95811.69;1018588;29;20032;-67
2021/07/29 01:13:45;;;;;;;7.75;4.78;;;;;;;15.05;100.00;95811.97;1022886;28;20078;-67
2021/07/29 01:14:15;;;;;;;7.45;4.85;;;;;;;14.97;100.00;95804.72;1032679;28;20038;-67
2021/07/29 01:14:48;;;;;;;8.00;5.18;;;;;;;14.98;100.00;95806.28;1030775;28;20078;-68
2021/07/29 01:15:19;;;;;;;6.28;4.82;;;;;;;15.06;100.00;95811.69;1030301;28;20592;-67
2021/07/29 01:15:49;;;;;;;6.60;5.28;;;;;;;15.06;100.00;95813.56;1027304;28;20030;-66
2021/07/29 01:16:20;;;;;;;6.47;4.75;;;;;;;15.05;100.00;95807.47;1027425;28;20568;-68
2021/07/29 01:16:50;;;;;;;13.18;5.30;;;;;;;15.05;100.00;95801.41;1034523;28;20053;-66
2021/07/29 01:17:20;;;;;;;6.70;4.85;;;;;;;15.04;100.00;95807.75;1034740;28;20088;-67
2021/07/29 01:17:51;;;;;;;8.90;5.15;;;;;;;15.07;100.00;95804.53;1030411;28;20018;-66
2021/07/29 01:18:21;;;;;;;6.85;4.90;;;;;;;15.05;100.00;95802.19;1022638;28;20035;-65
2021/07/29 01:18:52;;;;;;;7.80;4.75;;;;;;;15.06;100.00;95808.28;1018650;29;20016;-64
2021/07/29 01:19:23;;;;;;;6.22;5.00;;;;;;;15.01;100.00;95806.47;1016741;29;20259;-65
2021/07/29 01:19:53;;;;;;;5.90;4.93;;;;;;;15.04;100.00;95810.41;1018485;29;20031;-64
2021/07/29 01:20:24;;;;;;;6.43;5.13;;;;;;;15.04;100.00;95815.69;1022864;28;20038;-65
2021/07/29 01:20:54;;;;;;;5.95;4.85;;;;;;;15.07;100.00;95812.47;1024963;28;20026;-65
2021/07/29 01:21:25;;;;;;;5.55;4.78;;;;;;;15.04;100.00;95808.53;1026616;28;20049;-65
2021/07/29 01:21:57;;;;;;;12.00;5.50;;;;;;;15.05;100.00;95807.47;1021964;29;20855;-65
2021/07/29 01:22:45;;;;;;;11.23;5.25;;;;;;;15.04;100.00;95805.13;1022861;28;20051;-65
2021/07/29 01:23:15;;;;;;;9.02;4.90;;;;;;;15.06;100.00;95809.06;1022601;28;20513;-65
2021/07/29 01:23:46;;;;;;;5.47;4.47;;;;;;;15.09;100.00;95813.75;1026705;28;20034;-65
2021/07/29 01:24:16;;;;;;;5.85;4.47;;;;;;;15.07;100.00;95807.97;1029572;28;20038;-65
2021/07/29 01:24:47;;;;;;;8.52;5.30;;;;;;;15.08;100.00;95811.38;1026664;28;20038;-65
2021/07/29 01:25:17;;;;;;;5.70;5.07;;;;;;;15.07;100.00;95804.53;1030801;28;20035;-65
2021/07/29 01:25:48;;;;;;;9.25;5.40;;;;;;;15.09;100.00;95807.69;1034776;28;20025;-65
2021/07/29 01:26:18;;;;;;;7.65;5.05;;;;;;;15.02;100.00;95805.44;1030116;28;20106;-65
2021/07/29 01:26:49;;;;;;;9.75;5.78;;;;;;;15.07;100.00;95799.25;1026673;28;20117;-65
2021/07/29 01:27:19;;;;;;;5.85;4.90;;;;;;;15.09;100.00;95807.69;1026424;28;20046;-65
2021/07/29 01:27:50;;;;;;;9.60;5.45;;;;;;;15.10;100.00;95809.25;1025845;28;20045;-64
2021/07/29 01:28:20;;;;;;;7.03;5.30;;;;;;;15.11;100.00;95810.03;1022420;29;20550;-64
2021/07/29 01:28:50;;;;;;;6.05;4.93;;;;;;;14.99;100.00;95791.97;1022683;29;20031;-65
2021/07/29 01:29:21;;;;;;;6.90;4.85;;;;;;;15.09;100.00;95802.41;1023020;28;20477;-64
2021/07/29 01:29:51;;;;;;;7.25;4.90;;;;;;;15.13;100.00;95808.69;1022527;28;20465;-65
2021/07/29 01:30:22;;;;;;;6.57;4.82;;;;;;;15.14;100.00;95810.25;1026770;28;20035;-64
2021/07/29 01:30:52;;;;;;;8.18;4.53;;;;;;;15.12;100.00;95807.09;1026483;28;20037;-64
2021/07/29 01:31:23;;;;;;;9.80;5.38;;;;;;;15.14;100.00;95807.59;1021531;28;20023;-65
2021/07/29 01:31:54;;;;;;;7.20;5.80;;;;;;;15.07;100.00;95788.69;1021806;29;20038;-64
2021/07/29 01:32:24;;;;;;;6.43;5.25;;;;;;;15.16;100.00;95805.47;1022455;29;20036;-65
2021/07/29 01:32:55;;;;;;;8.07;5.20;;;;;;;15.16;100.00;95805.47;1024775;28;20141;-65
2021/07/29 01:33:25;;;;;;;6.70;5.15;;;;;;;15.14;100.00;95799.66;1025337;28;20029;-64
2021/07/29 01:33:55;;;;;;;8.07;5.72;;;;;;;15.15;100.00;95806.50;1023735;28;20027;-65
2021/07/29 01:34:26;;;;;;;9.60;5.80;;;;;;;15.13;100.00;95799.97;1026033;28;20085;-65
2021/07/29 01:34:57;;;;;;;6.93;5.30;;;;;;;15.15;100.00;95803.09;1021728;29;20046;-65
2021/07/29 01:35:27;;;;;;;8.10;5.30;;;;;;;15.15;100.00;95805.72;1025318;28;20026;-64
2021/07/29 01:35:58;;;;;;;9.75;5.60;;;;;;;15.14;100.00;95810.25;1030144;28;20037;-65
2021/07/29 01:36:28;;;;;;;6.80;4.72;;;;;;;15.13;100.00;95803.41;1030387;28;20022;-61
2021/07/29 01:36:59;;;;;;;6.38;5.25;;;;;;;15.13;100.00;95803.41;1030614;28;20030;-64
2021/07/29 01:37:29;;;;;;;6.88;5.00;;;;;;;15.17;100.00;95800.94;1026009;28;20089;-64
2021/07/29 01:38:00;;;;;;;6.95;5.70;;;;;;;15.15;100.00;95806.50;1026338;28;20031;-64
2021/07/29 01:38:30;;;;;;;7.82;5.30;;;;;;;15.14;100.00;95798.88;1030645;28;20030;-64
2021/07/29 01:39:01;;;;;;;6.10;4.95;;;;;;;15.16;100.00;95804.69;1026561;28;20027;-65
2021/07/29 01:39:31;;;;;;;8.05;5.47;;;;;;;15.16;100.00;95807.31;1025287;28;20052;-64
2021/07/29 01:40:01;;;;;;;6.32;4.93;;;;;;;15.15;100.00;95795.94;1026690;28;20566;-65
2021/07/29 01:40:32;;;;;;;7.47;4.47;;;;;;;15.18;100.00;95805.16;1018639;29;20434;-65
2021/07/29 01:41:02;;;;;;;7.22;5.53;;;;;;;15.16;100.00;95800.19;1021163;28;20489;-64
2021/07/29 01:41:33;;;;;;;7.88;5.20;;;;;;;15.19;100.00;95801.44;1022545;29;20067;-65
2021/07/29 01:42:04;;;;;;;8.02;5.38;;;;;;;15.19;100.00;95806.72;1023007;28;20133;-65
2021/07/29 01:42:34;;;;;;;9.10;5.50;;;;;;;15.16;100.00;95797.53;1022679;28;20039;-65
2021/07/29 01:43:05;;;;;;;7.75;5.18;;;;;;;15.17;100.00;95798.31;1026084;28;20040;-65
2021/07/29 01:43:35;;;;;;;12.85;4.32;;;;;;;15.20;100.00;95803.81;1022084;28;20132;-65
2021/07/29 01:44:06;;;;;;;6.15;5.10;;;;;;;15.17;100.00;95793.81;1022663;29;20034;-65
2021/07/29 01:44:36;;;;;;;7.07;5.00;;;;;;;15.19;100.00;95796.94;1026432;28;20022;-64
2021/07/29 01:45:07;;;;;;;6.97;5.18;;;;;;;15.03;100.00;95772.63;1024762;28;20065;-62
2021/07/29 01:45:37;;;;;;;9.50;4.32;;;;;;;15.19;100.00;95796.16;1024155;28;20042;-63
2021/07/29 01:46:08;;;;;;;7.00;5.18;;;;;;;15.19;100.00;95799.59;1025249;28;20042;-64
2021/07/29 01:46:38;;;;;;;8.70;5.07;;;;;;;15.19;100.00;95798.78;1022240;28;20039;-64
2021/07/29 01:47:09;;;;;;;8.52;5.15;;;;;;;15.19;100.00;95799.59;1020841;28;20036;-61
2021/07/29 01:47:39;;;;;;;6.18;4.90;;;;;;;15.18;100.00;95798.00;1026945;28;20034;-65
2021/07/29 01:48:10;;;;;;;6.75;5.13;;;;;;;15.21;100.00;95801.94;1027046;28;20421;-63
2021/07/29 01:48:40;;;;;;;5.88;4.50;;;;;;;15.22;100.00;95796.34;1027729;28;20181;-63
2021/07/29 01:49:11;;;;;;;8.10;4.43;;;;;;;15.19;100.00;95801.44;1030997;28;20433;-64
2021/07/29 01:49:41;;;;;;;6.53;4.78;;;;;;;15.18;100.00;95805.94;1031160;28;20033;-64
2021/07/29 01:50:11;;;;;;;7.13;4.80;;;;;;;15.19;100.00;95807.53;1031148;28;20065;-64
2021/07/29 01:50:45;;;;;;;7.45;4.13;;;;;;;15.20;100.00;95803.81;1034612;28;20034;-65
2021/07/29 01:51:15;;;;;;;6.28;4.70;;;;;;;15.22;100.00;95804.28;1035374;28;20037;-65
2021/07/29 01:51:46;;;;;;;7.70;5.15;;;;;;;15.23;100.00;95808.50;1034518;28;20026;-65
2021/07/29 01:52:16;;;;;;;12.25;5.43;;;;;;;15.23;100.00;95805.09;1033858;28;20695;-64
2021/07/29 01:52:47;;;;;;;6.80;4.82;;;;;;;15.22;100.00;95801.63;1031156;28;20092;-65
2021/07/29 01:53:17;;;;;;;9.15;5.70;;;;;;;15.21;100.00;95804.59;1026991;28;20034;-65
2021/07/29 01:53:48;;;;;;;6.20;4.72;;;;;;;15.23;100.00;95802.44;1020249;29;20493;-64
2021/07/29 01:54:18;;;;;;;7.00;5.13;;;;;;;15.22;100.00;95795.56;1015211;29;20036;-64
2021/07/29 01:54:48;;;;;;;7.20;5.20;;;;;;;15.20;100.00;95795.88;1022938;28;20039;-64
2021/07/29 01:55:19;;;;;;;9.60;4.88;;;;;;;15.22;100.00;95800.84;1026999;28;20551;-64
2021/07/29 01:55:50;;;;;;;8.05;4.55;;;;;;;15.21;100.00;95797.44;1034431;28;20438;-65
2021/07/29 01:56:21;;;;;;;6.63;4.78;;;;;;;15.18;100.00;95795.38;1031229;28;20121;-65
2021/07/29 01:56:51;;;;;;;9.43;5.00;;;;;;;15.23;100.00;95797.94;1027256;28;20023;-64
2021/07/29 01:57:23;;;;;;;9.80;5.25;;;;;;;15.24;100.00;95798.72;1020339;29;20038;-65
2021/07/29 01:57:54;;;;;;;10.88;5.38;;;;;;;15.21;100.00;95802.72;1023724;28;20089;-64
2021/07/29 01:58:24;;;;;;;7.50;5.05;;;;;;;15.21;100.00;95802.72;1027560;28;20073;-64
2021/07/29 01:58:55;;;;;;;6.65;4.97;;;;;;;15.20;100.00;95798.50;1026093;28;20025;-61
2021/07/29 01:59:25;;;;;;;5.10;4.45;;;;;;;15.21;100.00;95794.78;1023350;29;20026;-64
2021/07/29 01:59:55;;;;;;;11.70;5.35;;;;;;;15.21;100.00;95802.72;1023136;28;20032;-65
2021/07/29 02:00:26;;;;;;;5.25;4.40;;;;;;;15.22;100.00;95801.63;1023194;28;20409;-65
2021/07/29 02:00:56;;;;;;;8.15;5.05;;;;;;;15.23;100.00;95802.44;1026838;28;20030;-65
2021/07/29 02:01:27;;;;;;;9.55;4.93;;;;;;;15.23;100.00;95810.38;1031352;28;20034;-65
2021/07/29 02:01:57;;;;;;;6.50;4.97;;;;;;;15.24;100.00;95804.78;1030614;28;20029;-65
2021/07/29 02:02:28;;;;;;;8.18;4.93;;;;;;;15.23;100.00;95805.88;1034986;28;20543;-64
2021/07/29 02:02:59;;;;;;;6.55;4.82;;;;;;;15.24;100.00;95804.00;1035307;28;20144;-65
2021/07/29 02:03:30;;;;;;;8.32;4.95;;;;;;;15.24;100.00;95798.72;1035202;28;20026;-64
2021/07/29 02:04:00;;;;;;;8.77;5.20;;;;;;;15.22;100.00;95796.34;1030740;28;20018;-64
2021/07/29 02:04:31;;;;;;;6.93;5.18;;;;;;;15.22;100.00;95809.56;1031048;28;20019;-64
2021/07/29 02:05:01;;;;;;;8.52;5.57;;;;;;;15.22;100.00;95801.63;1026939;28;20118;-64
2021/07/29 02:05:32;;;;;;;8.75;5.00;;;;;;;15.22;100.00;95809.56;1026899;28;20058;-65
2021/07/29 02:06:02;;;;;;;6.72;5.43;;;;;;;15.20;100.00;95808.31;1026145;28;20023;-64
2021/07/29 02:06:37;;;;;;;7.30;5.40;;;;;;;15.22;100.00;95806.16;1027002;28;20149;-65
2021/07/29 02:07:07;;;;;;;6.10;5.03;;;;;;;15.22;100.00;95806.91;1019232;29;20421;-65
2021/07/29 02:07:38;;;;;;;7.30;5.32;;;;;;;15.23;100.00;95805.09;1021790;29;20028;-64
2021/07/29 02:08:08;;;;;;;8.98;6.13;;;;;;;15.23;100.00;95808.50;1022877;29;20042;-65
2021/07/29 02:08:39;;;;;;;6.95;4.95;;;;;;;15.22;100.00;95806.91;1019056;29;20134;-65
2021/07/29 02:09:09;;;;;;;9.77;5.25;;;;;;;15.12;100.00;95793.88;1023876;28;20035;-65
2021/07/29 02:09:40;;;;;;;6.90;5.60;;;;;;;15.20;100.00;95809.09;1035072;28;20032;-65
2021/07/29 02:10:10;;;;;;;6.90;5.10;;;;;;;15.20;100.00;95809.09;1026914;28;20290;-64
2021/07/29 02:10:41;;;;;;;9.02;5.90;;;;;;;15.20;100.00;95809.09;1023069;28;20584;-61
2021/07/29 02:11:11;;;;;;;7.82;5.53;;;;;;;15.20;100.00;95809.09;1022520;28;20031;-65
2021/07/29 02:11:49;;;;;;;8.20;5.75;;;;;;;15.18;100.00;95805.94;1018483;29;20031;-65
2021/07/29 02:12:19;;;;;;;10.20;5.70;;;;;;;15.16;100.00;95810.75;1022462;29;20031;-64
2021/07/29 02:12:50;;;;;;;9.02;5.63;;;;;;;15.17;100.00;95812.31;1029914;28;20472;-62
2021/07/29 02:13:21;;;;;;;9.50;5.43;;;;;;;15.17;100.00;95808.88;1019079;28;20032;-64
2021/07/29 02:13:51;;;;;;;8.68;5.28;;;;;;;15.17;100.00;95809.66;1027091;28;20117;-62
2021/07/29 02:14:22;;;;;;;8.05;5.50;;;;;;;15.10;100.00;95803.97;1026819;28;20055;-65
2021/07/29 02:14:52;;;;;;;8.18;6.03;;;;;;;15.14;100.00;95807.59;1026920;28;20030;-64
2021/07/29 02:15:23;;;;;;;7.70;5.75;;;;;;;15.15;100.00;95811.03;1021511;28;20031;-65
2021/07/29 02:15:56;;;;;;;6.80;5.20;;;;;;;15.13;100.00;95807.91;1028633;28;20193;-65
2021/07/29 02:16:27;;;;;;;12.20;5.28;;;;;;;15.14;100.00;95814.75;1022062;28;20031;-64
2021/07/29 02:16:57;;;;;;;8.55;5.18;;;;;;;15.14;100.00;95809.47;1018998;29;20035;-64
2021/07/29 02:17:28;;;;;;;8.05;5.80;;;;;;;15.08;100.00;95806.09;1019392;29;20028;-64
2021/07/29 02:17:59;;;;;;;6.63;5.53;;;;;;;15.11;100.00;95808.19;1023116;28;20027;-65
2021/07/29 02:18:29;;;;;;;7.47;5.60;;;;;;;15.11;100.00;95810.81;1023106;29;20545;-64
2021/07/29 02:19:00;;;;;;;6.60;5.15;;;;;;;15.05;100.00;95801.41;1023227;29;20047;-65
2021/07/29 02:19:32;;;;;;;9.00;5.55;;;;;;;15.11;100.00;95815.31;1024787;28;20043;-64
2021/07/29 02:20:02;;;;;;;7.50;4.88;;;;;;;15.02;100.00;95800.13;1031782;28;20022;-64
2021/07/29 02:20:33;;;;;;;8.15;5.78;;;;;;;14.93;100.00;95787.88;1035230;28;20038;-65
2021/07/29 02:21:09;;;;;;;5.90;5.28;;;;;;;15.07;100.00;95815.91;1029511;28;20124;-64
2021/07/29 02:21:42;;;;;;;11.07;5.40;;;;;;;15.08;100.00;95812.16;1030834;28;20125;-62
2021/07/29 02:22:12;;;;;;;7.90;5.20;;;;;;;15.09;100.00;95812.97;1026705;28;20136;-64
2021/07/29 02:22:43;;;;;;;10.55;5.15;;;;;;;15.09;100.00;95810.34;1023542;28;20030;-64
2021/07/29 02:23:13;;;;;;;13.93;5.63;;;;;;;15.08;100.00;95814.03;1027135;28;20102;-65
2021/07/29 02:23:45;;;;;;;9.27;5.55;;;;;;;15.05;100.00;95802.19;1023204;28;20038;-65
2021/07/29 02:24:16;;;;;;;7.18;5.60;;;;;;;15.03;100.00;95804.34;1018891;29;20167;-64
2021/07/29 02:24:46;;;;;;;8.95;5.70;;;;;;;15.09;100.00;95810.34;1019201;29;20078;-63
2021/07/29 02:25:17;;;;;;;9.40;6.32;;;;;;;15.09;100.00;95815.63;1015602;29;20032;-65